Time;durP1;ratioP1;P1;durP2;ratioP2;P2;SDS_P1;SDS_P2;PMS_P1;PMS_P2;Temp;Humidity;BMP_temperature;BMP_pressure;BME280_temperature;BME280_humidity;BME280_pressure;Samples;Min_cycle;Max_cycle;Signal;HPM_P1;HPM_P2
2023/03/23 00:02:24;;;;;;;28.13;16.27;;;;;;;;;;5080687;28;20204;-63
2023/03/23 00:04:52;;;;;;;27.13;16.65;;;;;;;;;;5080411;28;20215;-63
2023/03/23 00:07:22;;;;;;;24.90;15.32;;;;;;;;;;5079969;28;20212;-63
2023/03/23 00:09:52;;;;;;;24.60;15.55;;;;;;;;;;5080347;28;20227;-63
2023/03/23 00:12:21;;;;;;;23.88;14.98;;;;;;;;;;5080116;28;20204;-63
2023/03/23 00:14:48;;;;;;;21.35;14.55;;;;;;;;;;5080264;28;20219;-63
2023/03/23 00:17:16;;;;;;;21.08;14.07;;;;;;;;;;5079829;28;20207;-63
2023/03/23 00:19:46;;;;;;;21.58;13.68;;;;;;;;;;5079961;28;20231;-63
2023/03/23 00:22:14;;;;;;;21.92;13.75;;;;;;;;;;5080182;28;20296;-66
2023/03/23 00:24:44;;;;;;;19.40;13.73;;;;;;;;;;5079972;28;20212;-62
2023/03/23 00:27:14;;;;;;;18.88;12.00;;;;;;;;;;5079729;28;20231;-62
2023/03/23 00:29:42;;;;;;;18.88;12.50;;;;;;;;;;5079944;28;20200;-62
2023/03/23 00:32:12;;;;;;;17.55;12.10;;;;;;;;;;5079711;28;20219;-63
2023/03/23 00:34:41;;;;;;;18.45;11.43;;;;;;;;;;5080046;28;20208;-63
2023/03/23 00:37:09;;;;;;;17.02;11.45;;;;;;;;;;5079486;28;20201;-63
2023/03/23 00:39:37;;;;;;;18.35;11.70;;;;;;;;;;5079580;28;20239;-63
2023/03/23 00:42:07;;;;;;;15.85;10.50;;;;;;;;;;5079146;28;20247;-63
2023/03/23 00:44:35;;;;;;;15.38;10.98;;;;;;;;;;5080154;28;20212;-63
2023/03/23 00:47:03;;;;;;;16.17;10.95;;;;;;;;;;5079572;28;20260;-63
2023/03/23 00:49:34;;;;;;;15.25;9.98;;;;;;;;;;5079320;28;20212;-63
2023/03/23 00:52:02;;;;;;;13.45;9.48;;;;;;;;;;5079862;28;20204;-63
2023/03/23 00:54:30;;;;;;;14.38;9.68;;;;;;;;;;5079748;28;20300;-63
2023/03/23 00:56:57;;;;;;;14.60;9.35;;;;;;;;;;5079469;28;20225;-63
2023/03/23 00:59:26;;;;;;;13.10;9.32;;;;;;;;;;5079512;28;20585;-64
2023/03/23 01:01:53;;;;;;;12.43;8.15;;;;;;;;;;5079547;28;20212;-63
2023/03/23 01:04:21;;;;;;;11.63;8.50;;;;;;;;;;5079195;28;20208;-63
2023/03/23 01:06:51;;;;;;;14.32;8.98;;;;;;;;;;5079642;28;20259;-63
2023/03/23 01:09:19;;;;;;;12.80;8.57;;;;;;;;;;5078985;28;20262;-63
2023/03/23 01:11:47;;;;;;;13.75;8.68;;;;;;;;;;5079268;28;20459;-63
2023/03/23 01:14:15;;;;;;;10.45;7.80;;;;;;;;;;5079194;28;20211;-63
2023/03/23 01:16:44;;;;;;;12.10;7.70;;;;;;;;;;5079351;28;20200;-63
2023/03/23 01:19:11;;;;;;;9.82;7.25;;;;;;;;;;5079443;28;20223;-63
2023/03/23 01:21:39;;;;;;;11.07;7.47;;;;;;;;;;5079438;28;20204;-63
2023/03/23 01:24:07;;;;;;;9.65;6.60;;;;;;;;;;5078660;28;20240;-63
2023/03/23 01:26:34;;;;;;;10.80;7.18;;;;;;;;;;5078869;28;20623;-63
2023/03/23 01:29:01;;;;;;;9.25;6.63;;;;;;;;;;5078713;28;20258;-63
2023/03/23 01:31:29;;;;;;;10.18;6.97;;;;;;;;;;5078476;28;20544;-63
2023/03/23 01:33:58;;;;;;;10.60;6.82;;;;;;;;;;5078730;28;20250;-63
2023/03/23 01:36:26;;;;;;;9.07;6.43;;;;;;;;;;5079062;28;20209;-63
2023/03/23 01:38:54;;;;;;;9.38;6.38;;;;;;;;;;5078635;28;20307;-63
2023/03/23 01:41:22;;;;;;;9.65;6.60;;;;;;;;;;5078492;28;20269;-63
2023/03/23 01:43:57;;;;;;;9.13;6.40;;;;;;;;;;5078921;28;20212;-63
2023/03/23 01:46:24;;;;;;;8.73;6.10;;;;;;;;;;5078051;28;20278;-63
2023/03/23 01:48:52;;;;;;;8.40;5.45;;;;;;;;;;5077854;28;20204;-63
2023/03/23 01:51:21;;;;;;;8.27;5.90;;;;;;;;;;5078243;28;20225;-63
2023/03/23 01:53:50;;;;;;;7.22;5.25;;;;;;;;;;5078696;28;20215;-63
2023/03/23 01:56:20;;;;;;;7.43;5.72;;;;;;;;;;5078118;28;20286;-63
2023/03/23 01:58:47;;;;;;;8.27;5.90;;;;;;;;;;5078519;28;20204;-63
2023/03/23 02:01:16;;;;;;;6.85;5.28;;;;;;;;;;5078193;28;20208;-63
2023/03/23 02:03:44;;;;;;;8.23;5.60;;;;;;;;;;5078207;28;20211;-64
2023/03/23 02:06:12;;;;;;;7.18;5.53;;;;;;;;;;5077964;28;20232;-64
2023/03/23 02:08:42;;;;;;;7.30;4.80;;;;;;;;;;5078227;28;20212;-63
2023/03/23 02:11:14;;;;;;;6.80;4.80;;;;;;;;;;5078045;28;20291;-63
2023/03/23 02:13:42;;;;;;;7.13;4.65;;;;;;;;;;5078137;28;20242;-63
2023/03/23 02:16:12;;;;;;;6.45;4.68;;;;;;;;;;5077554;28;20208;-63
2023/03/23 02:18:49;;;;;;;7.63;5.25;;;;;;;;;;5077198;28;20671;-63
2023/03/23 02:21:28;;;;;;;6.55;4.63;;;;;;;;;;5077468;28;20222;-63
2023/03/23 02:24:10;;;;;;;6.13;4.20;;;;;;;;;;5077770;28;20215;-63
2023/03/23 02:26:47;;;;;;;6.13;4.30;;;;;;;;;;5078062;28;20313;-64
2023/03/23 02:29:29;;;;;;;5.28;3.83;;;;;;;;;;5077450;28;20487;-63
2023/03/23 02:32:09;;;;;;;5.38;4.05;;;;;;;;;;5061537;28;20621;-63
2023/03/23 02:34:40;;;;;;;5.93;4.07;;;;;;;;;;5077408;28;20212;-63
2023/03/23 02:37:10;;;;;;;5.80;4.18;;;;;;;;;;5077955;28;20266;-63
2023/03/23 02:39:39;;;;;;;5.90;3.95;;;;;;;;;;5077047;28;20231;-63
2023/03/23 02:42:07;;;;;;;4.53;3.60;;;;;;;;;;5077594;28;20213;-63
2023/03/23 02:44:36;;;;;;;6.57;3.83;;;;;;;;;;5077158;28;20204;-63
2023/03/23 02:47:05;;;;;;;4.90;3.80;;;;;;;;;;5076991;28;20216;-63
2023/03/23 02:49:35;;;;;;;4.88;3.85;;;;;;;;;;5077540;28;20204;-63
2023/03/23 02:52:04;;;;;;;5.63;3.67;;;;;;;;;;5077414;28;20303;-63
2023/03/23 02:54:32;;;;;;;4.15;3.10;;;;;;;;;;5077456;28;20224;-63
2023/03/23 02:57:01;;;;;;;5.05;3.88;;;;;;;;;;5077585;28;20482;-63
2023/03/23 02:59:28;;;;;;;5.20;3.83;;;;;;;;;;5077653;28;20211;-64
2023/03/23 03:02:09;;;;;;;4.15;3.35;;;;;;;;;;5077835;28;20274;-64
2023/03/23 03:04:39;;;;;;;4.82;3.17;;;;;;;;;;5077457;28;20234;-64
2023/03/23 03:07:15;;;;;;;4.10;3.22;;;;;;;;;;5077793;28;20234;-64
2023/03/23 03:09:46;;;;;;;4.28;3.20;;;;;;;;;;5077009;28;20504;-63
2023/03/23 03:12:17;;;;;;;4.05;2.97;;;;;;;;;;5077795;28;20212;-63
2023/03/23 03:14:49;;;;;;;4.85;3.47;;;;;;;;;;5076958;28;20218;-63
2023/03/23 03:17:19;;;;;;;4.90;3.10;;;;;;;;;;5076951;28;20200;-63
2023/03/23 03:19:48;;;;;;;4.88;3.03;;;;;;;;;;5077498;28;20231;-63
2023/03/23 03:22:18;;;;;;;4.20;2.90;;;;;;;;;;5077103;28;20584;-63
2023/03/23 03:24:46;;;;;;;4.28;2.75;;;;;;;;;;5077013;28;20205;-63
2023/03/23 03:27:16;;;;;;;3.30;2.70;;;;;;;;;;5077082;28;20536;-63
2023/03/23 03:29:47;;;;;;;3.28;2.58;;;;;;;;;;5077187;28;20474;-63
2023/03/23 03:32:16;;;;;;;3.22;2.72;;;;;;;;;;5076928;28;20208;-63
2023/03/23 03:34:44;;;;;;;3.13;2.45;;;;;;;;;;5076535;28;20247;-63
2023/03/23 03:37:12;;;;;;;3.40;2.58;;;;;;;;;;5076934;28;20227;-63
2023/03/23 03:39:41;;;;;;;3.15;2.50;;;;;;;;;;5076729;28;20235;-63
2023/03/23 03:42:08;;;;;;;2.85;2.60;;;;;;;;;;5076478;28;20208;-63
2023/03/23 03:44:36;;;;;;;3.10;2.30;;;;;;;;;;5076600;28;20215;-63
2023/03/23 03:47:03;;;;;;;3.67;2.60;;;;;;;;;;5076807;28;20224;-63
2023/03/23 03:49:30;;;;;;;2.88;2.40;;;;;;;;;;5076492;28;20204;-63
2023/03/23 03:51:58;;;;;;;2.70;2.13;;;;;;;;;;5076373;28;20212;-63
2023/03/23 03:54:26;;;;;;;3.63;2.20;;;;;;;;;;5076671;28;20204;-63
2023/03/23 03:56:57;;;;;;;3.15;2.40;;;;;;;;;;5076672;28;20232;-63
2023/03/23 03:59:25;;;;;;;2.40;2.05;;;;;;;;;;5076914;28;20281;-63
2023/03/23 04:01:54;;;;;;;2.60;2.05;;;;;;;;;;5076523;28;20204;-64
2023/03/23 04:04:22;;;;;;;2.10;1.73;;;;;;;;;;5076895;28;20650;-64
2023/03/23 04:06:50;;;;;;;2.45;2.05;;;;;;;;;;5076682;28;20266;-63
2023/03/23 04:09:19;;;;;;;2.70;2.22;;;;;;;;;;5076278;28;20205;-63
2023/03/23 04:11:46;;;;;;;2.42;2.10;;;;;;;;;;5079322;28;20204;-63
2023/03/23 04:14:15;;;;;;;2.90;2.10;;;;;;;;;;5080099;28;20204;-63
2023/03/23 04:16:43;;;;;;;2.80;2.20;;;;;;;;;;5080072;28;20210;-63
2023/03/23 04:19:12;;;;;;;2.00;1.80;;;;;;;;;;5080134;28;20220;-63
2023/03/23 04:21:40;;;;;;;2.45;1.80;;;;;;;;;;5080397;28;20498;-64
2023/03/23 04:24:07;;;;;;;2.05;1.70;;;;;;;;;;5079629;28;20240;-63
2023/03/23 04:26:35;;;;;;;2.85;2.05;;;;;;;;;;5079742;28;20479;-63
2023/03/23 04:29:03;;;;;;;2.05;1.80;;;;;;;;;;5079748;28;20204;-63
2023/03/23 04:31:32;;;;;;;2.42;1.80;;;;;;;;;;5079994;28;20311;-63
2023/03/23 04:34:01;;;;;;;2.30;1.88;;;;;;;;;;5080198;28;20228;-63
2023/03/23 04:36:29;;;;;;;2.22;1.80;;;;;;;;;;5079826;28;20204;-63
2023/03/23 04:38:56;;;;;;;2.85;1.90;;;;;;;;;;5079551;28;20215;-63
2023/03/23 04:41:25;;;;;;;2.03;1.83;;;;;;;;;;5079667;28;20246;-63
2023/03/23 04:43:53;;;;;;;1.90;1.70;;;;;;;;;;5079334;28;20244;-63
2023/03/23 04:46:21;;;;;;;1.67;1.50;;;;;;;;;;5078964;28;20211;-63
2023/03/23 04:48:50;;;;;;;1.60;1.45;;;;;;;;;;5079175;28;20281;-63
2023/03/23 04:51:17;;;;;;;2.13;1.75;;;;;;;;;;5079712;28;20231;-63
2023/03/23 04:53:44;;;;;;;2.13;1.88;;;;;;;;;;5079647;28;20204;-63
2023/03/23 04:56:13;;;;;;;2.00;1.77;;;;;;;;;;5078912;28;20242;-63
2023/03/23 04:58:40;;;;;;;2.00;1.48;;;;;;;;;;5079661;28;20246;-63
2023/03/23 05:01:08;;;;;;;2.05;1.70;;;;;;;;;;5079293;28;20492;-63
2023/03/23 05:03:35;;;;;;;1.70;1.38;;;;;;;;;;5079214;28;20205;-63
2023/03/23 05:06:05;;;;;;;2.20;1.77;;;;;;;;;;5078390;28;20212;-63
2023/03/23 05:08:32;;;;;;;2.20;1.60;;;;;;;;;;5079200;28;20270;-63
2023/03/23 05:11:00;;;;;;;1.80;1.40;;;;;;;;;;5078024;28;20204;-63
2023/03/23 05:13:29;;;;;;;1.70;1.33;;;;;;;;;;5079118;28;20201;-63
2023/03/23 05:15:56;;;;;;;1.40;1.30;;;;;;;;;;5078905;28;20231;-63
2023/03/23 05:18:23;;;;;;;1.80;1.50;;;;;;;;;;5078844;28;20208;-63
2023/03/23 05:20:52;;;;;;;2.03;1.50;;;;;;;;;;5078822;28;20208;-63
2023/03/23 05:23:24;;;;;;;2.08;1.48;;;;;;;;;;5078806;28;20299;-63
2023/03/23 05:25:54;;;;;;;1.80;1.50;;;;;;;;;;5078386;28;20675;-63
2023/03/23 05:28:22;;;;;;;1.60;1.50;;;;;;;;;;5078344;28;20240;-63
2023/03/23 05:30:50;;;;;;;1.30;1.20;;;;;;;;;;5077579;28;20244;-63
2023/03/23 05:33:17;;;;;;;1.77;1.33;;;;;;;;;;5077575;28;20204;-63
2023/03/23 05:35:44;;;;;;;1.52;1.40;;;;;;;;;;5077995;28;20231;-63
2023/03/23 05:38:12;;;;;;;1.50;1.40;;;;;;;;;;5077751;28;20204;-63
2023/03/23 05:40:41;;;;;;;2.17;1.48;;;;;;;;;;5077462;28;20215;-63
2023/03/23 05:43:08;;;;;;;1.60;1.40;;;;;;;;;;5078209;28;20213;-63
2023/03/23 05:45:35;;;;;;;1.48;1.20;;;;;;;;;;5077640;28;20208;-63
2023/03/23 05:48:03;;;;;;;1.80;1.30;;;;;;;;;;5077513;28;20263;-63
2023/03/23 05:50:30;;;;;;;1.48;1.38;;;;;;;;;;5076800;28;20204;-63
2023/03/23 05:52:58;;;;;;;1.42;1.30;;;;;;;;;;5076798;28;20208;-64
2023/03/23 05:55:26;;;;;;;1.40;1.30;;;;;;;;;;5076226;28;20211;-64
2023/03/23 05:57:54;;;;;;;1.80;1.10;;;;;;;;;;5076024;28;20209;-64
2023/03/23 06:00:23;;;;;;;1.23;1.13;;;;;;;;;;5076123;28;20208;-63
2023/03/23 06:02:51;;;;;;;1.80;1.30;;;;;;;;;;5076285;28;20208;-63
2023/03/23 06:05:19;;;;;;;1.70;1.35;;;;;;;;;;5075134;28;20271;-63
2023/03/23 06:07:47;;;;;;;1.40;1.30;;;;;;;;;;5075314;28;20335;-63
2023/03/23 06:10:14;;;;;;;1.30;1.20;;;;;;;;;;5075582;28;20703;-63
2023/03/23 06:12:41;;;;;;;1.20;1.05;;;;;;;;;;5075434;28;20205;-63
2023/03/23 06:15:12;;;;;;;1.20;1.10;;;;;;;;;;5075101;28;20216;-63
2023/03/23 06:17:40;;;;;;;1.58;1.33;;;;;;;;;;5074292;28;20228;-63
2023/03/23 06:20:11;;;;;;;3.42;2.53;;;;;;;;;;5075008;28;20286;-63
2023/03/23 06:22:39;;;;;;;6.28;4.00;;;;;;;;;;5073572;28;20219;-63
2023/03/23 06:25:07;;;;;;;8.73;5.97;;;;;;;;;;5074890;28;20227;-63
2023/03/23 06:27:35;;;;;;;10.95;7.80;;;;;;;;;;5074481;28;20515;-63
2023/03/23 06:30:02;;;;;;;17.50;9.25;;;;;;;;;;5073104;28;20202;-63
2023/03/23 06:32:32;;;;;;;20.40;11.00;;;;;;;;;;5074446;28;20307;-63
2023/03/23 06:34:59;;;;;;;22.67;12.18;;;;;;;;;;5075287;28;20208;-63
2023/03/23 06:37:26;;;;;;;23.30;12.57;;;;;;;;;;5074433;28;20200;-63
2023/03/23 06:39:53;;;;;;;25.65;14.32;;;;;;;;;;5074838;28;20208;-63
2023/03/23 06:42:21;;;;;;;26.80;15.25;;;;;;;;;;5073650;28;20784;-63
2023/03/23 06:44:48;;;;;;;27.10;15.75;;;;;;;;;;5074432;28;20204;-63
2023/03/23 06:47:15;;;;;;;28.38;16.95;;;;;;;;;;5074003;28;20204;-63
2023/03/23 06:49:44;;;;;;;32.47;17.83;;;;;;;;;;5074520;28;20595;-63
2023/03/23 06:52:12;;;;;;;30.17;17.98;;;;;;;;;;5075242;28;20576;-63
2023/03/23 06:54:39;;;;;;;36.03;20.27;;;;;;;;;;5074564;28;20212;-63
2023/03/23 06:57:07;;;;;;;35.10;20.30;;;;;;;;;;5074077;28;20243;-63
2023/03/23 06:59:34;;;;;;;30.27;20.15;;;;;;;;;;5075235;28;20215;-63
2023/03/23 07:02:02;;;;;;;35.15;20.65;;;;;;;;;;5075184;28;20201;-63
2023/03/23 07:04:30;;;;;;;37.05;21.92;;;;;;;;;;5074508;28;20265;-63
2023/03/23 07:06:59;;;;;;;36.00;22.25;;;;;;;;;;5074090;28;20214;-63
2023/03/23 07:09:26;;;;;;;36.15;22.83;;;;;;;;;;5074850;28;20618;-63
2023/03/23 07:11:53;;;;;;;36.50;23.00;;;;;;;;;;5075556;28;20222;-63
2023/03/23 07:14:21;;;;;;;34.13;22.05;;;;;;;;;;5074566;28;20208;-63
2023/03/23 07:16:49;;;;;;;37.53;23.48;;;;;;;;;;5075218;28;20673;-63
2023/03/23 07:19:16;;;;;;;37.50;23.38;;;;;;;;;;5074941;28;20250;-63
2023/03/23 07:21:43;;;;;;;34.65;22.95;;;;;;;;;;5074317;28;20212;-63
2023/03/23 07:24:14;;;;;;;35.70;22.52;;;;;;;;;;5074903;28;20501;-63
2023/03/23 07:26:42;;;;;;;38.40;22.95;;;;;;;;;;5075117;28;20608;-63
2023/03/23 07:29:09;;;;;;;35.97;21.85;;;;;;;;;;5074411;28;20327;-63
2023/03/23 07:31:37;;;;;;;31.77;21.17;;;;;;;;;;5075690;28;20220;-63
2023/03/23 07:34:05;;;;;;;36.95;22.80;;;;;;;;;;5074780;28;20211;-63
2023/03/23 07:36:35;;;;;;;34.05;22.05;;;;;;;;;;5074443;28;20573;-63
2023/03/23 07:39:02;;;;;;;35.00;22.95;;;;;;;;;;5074923;28;20291;-63
2023/03/23 07:41:31;;;;;;;31.45;22.25;;;;;;;;;;5074697;28;20688;-63
2023/03/23 07:43:58;;;;;;;34.47;22.05;;;;;;;;;;5075583;28;20212;-63
2023/03/23 07:46:26;;;;;;;33.92;21.70;;;;;;;;;;5077062;28;20584;-63
2023/03/23 07:48:53;;;;;;;33.20;21.30;;;;;;;;;;5078912;28;20238;-63
2023/03/23 07:51:21;;;;;;;33.50;21.77;;;;;;;;;;5079194;28;20240;-63
2023/03/23 07:53:49;;;;;;;35.65;21.75;;;;;;;;;;5078743;28;20204;-63
2023/03/23 07:56:19;;;;;;;29.98;21.55;;;;;;;;;;5077517;28;20228;-63
2023/03/23 07:58:48;;;;;;;33.50;21.58;;;;;;;;;;5078885;28;20193;-63
2023/03/23 08:01:15;;;;;;;26.98;19.48;;;;;;;;;;5078575;28;20729;-63
2023/03/23 08:03:42;;;;;;;29.60;19.67;;;;;;;;;;5077989;28;20476;-63
2023/03/23 08:06:10;;;;;;;31.33;20.40;;;;;;;;;;5077220;28;20208;-63
2023/03/23 08:08:40;;;;;;;27.73;20.02;;;;;;;;;;5077438;28;20325;-64
2023/03/23 08:11:07;;;;;;;29.42;19.30;;;;;;;;;;5078219;28;20201;-63
2023/03/23 08:13:35;;;;;;;29.38;19.90;;;;;;;;;;5077606;28;20204;-63
2023/03/23 08:16:04;;;;;;;28.77;19.42;;;;;;;;;;5077703;28;20240;-63
2023/03/23 08:18:31;;;;;;;28.25;19.20;;;;;;;;;;5077562;28;20700;-63
2023/03/23 08:20:59;;;;;;;27.77;18.40;;;;;;;;;;5077104;28;20210;-63
2023/03/23 08:23:26;;;;;;;24.95;18.02;;;;;;;;;;5078069;28;20204;-63
2023/03/23 08:25:54;;;;;;;27.75;19.02;;;;;;;;;;5076907;28;20216;-63
2023/03/23 08:28:21;;;;;;;26.65;17.70;;;;;;;;;;5078273;28;20330;-63
2023/03/23 08:30:49;;;;;;;27.33;18.52;;;;;;;;;;5077694;28;20200;-63
2023/03/23 08:33:18;;;;;;;26.45;18.23;;;;;;;;;;5078214;28;20224;-63
2023/03/23 08:35:46;;;;;;;26.38;17.83;;;;;;;;;;5077423;28;20200;-63
2023/03/23 08:38:13;;;;;;;25.23;17.38;;;;;;;;;;5077470;28;20204;-63
2023/03/23 08:40:41;;;;;;;26.73;17.52;;;;;;;;;;5077337;28;20204;-63
2023/03/23 08:43:10;;;;;;;24.05;16.80;;;;;;;;;;5077409;28;20212;-63
2023/03/23 08:45:37;;;;;;;24.83;17.08;;;;;;;;;;5077029;28;20205;-63
2023/03/23 08:48:04;;;;;;;22.55;16.15;;;;;;;;;;5076381;28;20232;-63
2023/03/23 08:50:33;;;;;;;21.17;16.08;;;;;;;;;;5076436;28;20204;-63
2023/03/23 08:53:01;;;;;;;23.13;15.82;;;;;;;;;;5077271;28;20207;-63
2023/03/23 08:55:28;;;;;;;23.20;15.82;;;;;;;;;;5075998;28;20713;-63
2023/03/23 08:57:56;;;;;;;23.23;15.73;;;;;;;;;;5076163;28;20618;-63
2023/03/23 09:00:26;;;;;;;24.48;16.58;;;;;;;;;;5077238;28;20204;-63
2023/03/23 09:02:54;;;;;;;19.98;14.70;;;;;;;;;;5076913;28;20205;-63
2023/03/23 09:05:24;;;;;;;21.65;14.63;;;;;;;;;;5077322;28;20228;-63
2023/03/23 09:07:53;;;;;;;18.40;14.10;;;;;;;;;;5076327;28;20671;-63
2023/03/23 09:10:21;;;;;;;18.80;14.25;;;;;;;;;;5076586;28;20212;-63
2023/03/23 09:12:48;;;;;;;19.75;14.10;;;;;;;;;;5076725;28;20211;-63
2023/03/23 09:15:17;;;;;;;17.88;13.07;;;;;;;;;;5076959;28;20231;-63
2023/03/23 09:17:45;;;;;;;18.92;12.60;;;;;;;;;;5077125;28;20211;-63
2023/03/23 09:20:14;;;;;;;18.63;12.90;;;;;;;;;;5077295;28;20720;-63
2023/03/23 09:22:42;;;;;;;16.25;12.35;;;;;;;;;;5076715;28;20200;-63
2023/03/23 09:25:11;;;;;;;16.55;12.13;;;;;;;;;;5076529;28;20219;-63
2023/03/23 09:27:40;;;;;;;15.18;11.43;;;;;;;;;;5076354;28;20204;-63
2023/03/23 09:30:08;;;;;;;14.30;10.98;;;;;;;;;;5076778;28;20251;-63
2023/03/23 09:32:36;;;;;;;15.95;10.73;;;;;;;;;;5076692;28;20212;-63
2023/03/23 09:35:04;;;;;;;15.13;10.73;;;;;;;;;;5076170;28;20204;-63
2023/03/23 09:37:32;;;;;;;14.57;10.93;;;;;;;;;;5075691;28;20651;-63
2023/03/23 09:39:59;;;;;;;14.98;10.80;;;;;;;;;;5076641;28;20299;-63
2023/03/23 09:42:36;;;;;;;13.32;10.02;;;;;;;;;;5076609;28;20212;-63
2023/03/23 09:45:08;;;;;;;13.63;9.98;;;;;;;;;;5075951;28;20212;-63
2023/03/23 09:47:40;;;;;;;14.57;10.05;;;;;;;;;;5075663;28;20211;-63
2023/03/23 09:50:11;;;;;;;14.52;10.20;;;;;;;;;;5076042;28;20289;-63
2023/03/23 09:52:40;;;;;;;13.70;10.18;;;;;;;;;;5076323;28;20212;-63
2023/03/23 09:55:11;;;;;;;13.32;9.90;;;;;;;;;;5075968;28;20697;-63
2023/03/23 09:57:41;;;;;;;14.75;9.63;;;;;;;;;;5074922;28;20236;-63
2023/03/23 10:00:14;;;;;;;12.70;9.73;;;;;;;;;;5076258;28;20292;-63
2023/03/23 10:02:45;;;;;;;11.30;8.98;;;;;;;;;;5075190;28;20204;-63
2023/03/23 10:05:27;;;;;;;13.00;9.38;;;;;;;;;;5075472;28;20204;-63
2023/03/23 10:07:54;;;;;;;12.95;9.90;;;;;;;;;;5074929;28;20223;-63
2023/03/23 10:10:25;;;;;;;10.45;8.45;;;;;;;;;;5075840;28;20293;-63
2023/03/23 10:12:58;;;;;;;12.52;9.23;;;;;;;;;;5076443;28;20239;-63
2023/03/23 10:15:27;;;;;;;11.32;8.57;;;;;;;;;;5075044;28;20208;-64
2023/03/23 10:17:57;;;;;;;11.25;8.63;;;;;;;;;;5074912;28;20215;-63
2023/03/23 10:20:33;;;;;;;10.75;8.60;;;;;;;;;;5075532;28;20208;-63
2023/03/23 10:23:04;;;;;;;10.52;8.05;;;;;;;;;;5074277;28;20199;-63
2023/03/23 10:25:33;;;;;;;9.93;7.80;;;;;;;;;;5075464;28;20358;-63
2023/03/23 10:28:05;;;;;;;9.18;7.95;;;;;;;;;;5075541;28;20267;-63
2023/03/23 10:30:35;;;;;;;10.18;7.85;;;;;;;;;;5080758;28;20235;-63
2023/03/23 10:33:05;;;;;;;9.55;7.82;;;;;;;;;;5094691;28;20200;-63
2023/03/23 10:35:36;;;;;;;10.15;7.95;;;;;;;;;;5095308;28;20481;-63
2023/03/23 10:38:05;;;;;;;10.80;7.90;;;;;;;;;;5094120;28;20199;-63
2023/03/23 10:40:34;;;;;;;10.02;8.13;;;;;;;;;;5094024;28;20460;-63
2023/03/23 10:43:04;;;;;;;10.55;7.97;;;;;;;;;;5095096;28;20235;-63
2023/03/23 10:45:33;;;;;;;11.18;7.63;;;;;;;;;;5095754;28;20529;-63
2023/03/23 10:48:03;;;;;;;10.05;8.18;;;;;;;;;;5094971;28;20302;-63
2023/03/23 10:50:32;;;;;;;11.25;7.88;;;;;;;;;;5093664;28;20231;-63
2023/03/23 10:53:00;;;;;;;10.50;8.10;;;;;;;;;;5094527;28;20517;-63
2023/03/23 10:55:37;;;;;;;9.70;7.25;;;;;;;;;;5094808;28;20657;-63
2023/03/23 10:58:08;;;;;;;9.95;7.40;;;;;;;;;;5095319;28;20207;-63
2023/03/23 11:00:42;;;;;;;10.30;7.40;;;;;;;;;;5094925;28;20211;-63
2023/03/23 11:03:25;;;;;;;10.20;7.75;;;;;;;;;;5094695;28;20223;-63
2023/03/23 11:05:54;;;;;;;9.68;7.25;;;;;;;;;;5095078;28;20203;-63
2023/03/23 11:08:23;;;;;;;9.20;7.05;;;;;;;;;;5094594;28;20272;-64
2023/03/23 11:10:52;;;;;;;8.75;7.30;;;;;;;;;;5095047;28;20264;-64
2023/03/23 11:13:22;;;;;;;8.10;6.63;;;;;;;;;;5094305;28;20324;-64
2023/03/23 11:15:50;;;;;;;7.95;7.05;;;;;;;;;;5094304;28;20207;-64
2023/03/23 11:18:21;;;;;;;8.48;6.97;;;;;;;;;;5093868;28;20211;-63
2023/03/23 11:20:51;;;;;;;8.75;6.95;;;;;;;;;;5093947;28;20210;-63
2023/03/23 11:23:22;;;;;;;9.52;6.68;;;;;;;;;;5094674;28;20212;-63
2023/03/23 11:25:54;;;;;;;8.10;6.60;;;;;;;;;;5094326;28;20210;-63
2023/03/23 11:28:23;;;;;;;7.93;6.38;;;;;;;;;;5093220;28;20565;-63
2023/03/23 11:30:54;;;;;;;7.20;6.07;;;;;;;;;;5090866;28;20223;-63
2023/03/23 11:33:24;;;;;;;7.47;5.90;;;;;;;;;;5091884;28;20214;-63
2023/03/23 11:35:53;;;;;;;6.30;5.68;;;;;;;;;;5090990;28;20204;-63
2023/03/23 11:38:23;;;;;;;7.22;5.90;;;;;;;;;;5090949;28;20211;-63
2023/03/23 11:40:51;;;;;;;7.43;5.85;;;;;;;;;;5090139;28;20211;-63
2023/03/23 11:43:21;;;;;;;6.82;5.50;;;;;;;;;;5092221;28;20269;-63
2023/03/23 11:45:53;;;;;;;6.00;5.40;;;;;;;;;;5092414;28;20495;-63
2023/03/23 11:48:23;;;;;;;6.30;4.97;;;;;;;;;;5090797;28;20477;-63
2023/03/23 11:50:52;;;;;;;5.82;4.70;;;;;;;;;;5092065;28;20235;-63
2023/03/23 11:53:27;;;;;;;6.60;5.30;;;;;;;;;;5093335;28;20275;-63
2023/03/23 11:55:57;;;;;;;7.10;5.35;;;;;;;;;;5092660;28;20234;-63
2023/03/23 11:58:32;;;;;;;6.78;5.00;;;;;;;;;;5093071;28;20415;-63
2023/03/23 12:01:04;;;;;;;7.13;5.35;;;;;;;;;;5092231;28;20515;-63
2023/03/23 12:03:47;;;;;;;5.75;4.60;;;;;;;;;;5092926;28;20203;-63
2023/03/23 12:06:16;;;;;;;7.28;5.00;;;;;;;;;;5088999;28;20291;-63
2023/03/23 12:08:50;;;;;;;6.88;5.57;;;;;;;;;;5091373;28;20435;-63
2023/03/23 12:11:23;;;;;;;6.00;4.75;;;;;;;;;;5091013;28;20215;-63
2023/03/23 12:14:00;;;;;;;5.63;5.00;;;;;;;;;;5091614;28;20583;-63
2023/03/23 12:16:33;;;;;;;5.07;4.38;;;;;;;;;;5091216;28;20206;-63
2023/03/23 12:19:05;;;;;;;6.72;4.68;;;;;;;;;;5091613;28;20475;-63
2023/03/23 12:21:37;;;;;;;6.25;4.72;;;;;;;;;;5091519;28;20199;-63
2023/03/23 12:24:08;;;;;;;5.00;4.47;;;;;;;;;;5092345;28;20203;-63
2023/03/23 12:26:38;;;;;;;5.93;4.78;;;;;;;;;;5091357;28;20204;-63
2023/03/23 12:29:12;;;;;;;5.50;4.55;;;;;;;;;;5092309;28;20286;-63
2023/03/23 12:31:46;;;;;;;5.93;4.70;;;;;;;;;;5091674;28;20294;-63
2023/03/23 12:34:26;;;;;;;5.70;4.55;;;;;;;;;;5094263;28;20208;-63
2023/03/23 12:36:58;;;;;;;4.72;4.25;;;;;;;;;;5094860;28;20210;-63
2023/03/23 12:39:46;;;;;;;5.13;4.15;;;;;;;;;;5095498;28;20231;-63
2023/03/23 12:42:16;;;;;;;4.53;3.78;;;;;;;;;;5089865;28;20218;-63
2023/03/23 12:44:47;;;;;;;4.32;3.92;;;;;;;;;;5095796;28;20617;-63
2023/03/23 12:47:24;;;;;;;4.82;4.32;;;;;;;;;;5094983;28;20199;-64
2023/03/23 12:49:54;;;;;;;5.57;4.40;;;;;;;;;;5096844;28;20604;-63
2023/03/23 12:52:24;;;;;;;4.03;3.65;;;;;;;;;;5096841;28;20215;-63
2023/03/23 12:54:54;;;;;;;5.22;4.15;;;;;;;;;;5095123;28;20483;-63
2023/03/23 12:57:27;;;;;;;4.20;3.80;;;;;;;;;;5093567;28;20338;-63
2023/03/23 12:59:56;;;;;;;4.32;3.90;;;;;;;;;;5095624;28;20199;-63
2023/03/23 13:02:27;;;;;;;4.28;3.58;;;;;;;;;;5095898;28;20579;-63
2023/03/23 13:04:59;;;;;;;4.65;3.88;;;;;;;;;;5093162;28;20203;-63
2023/03/23 13:07:28;;;;;;;3.97;3.58;;;;;;;;;;5094727;28;20483;-64
2023/03/23 13:09:58;;;;;;;4.70;3.60;;;;;;;;;;5094086;28;20227;-63
2023/03/23 13:12:26;;;;;;;4.43;3.40;;;;;;;;;;5095226;28;20204;-63
2023/03/23 13:14:58;;;;;;;3.67;3.35;;;;;;;;;;5094761;28;20218;-63
2023/03/23 13:17:37;;;;;;;3.50;3.20;;;;;;;;;;5092285;28;20776;-63
2023/03/23 13:20:18;;;;;;;3.90;3.50;;;;;;;;;;5093848;28;20207;-63
2023/03/23 13:22:49;;;;;;;3.38;3.08;;;;;;;;;;5094245;28;20200;-63
2023/03/23 13:25:19;;;;;;;3.58;3.10;;;;;;;;;;5094223;28;20222;-63
2023/03/23 13:27:57;;;;;;;3.22;2.92;;;;;;;;;;5094609;28;20288;-63
2023/03/23 13:30:24;;;;;;;3.40;2.90;;;;;;;;;;5094467;28;20231;-63
2023/03/23 13:32:53;;;;;;;3.08;2.78;;;;;;;;;;5093508;28;20208;-63
2023/03/23 13:35:21;;;;;;;3.20;2.90;;;;;;;;;;5093615;28;20403;-63
2023/03/23 13:37:50;;;;;;;3.78;2.83;;;;;;;;;;5093437;28;20371;-63
2023/03/23 13:40:23;;;;;;;3.42;2.70;;;;;;;;;;5093522;28;20480;-63
2023/03/23 13:42:51;;;;;;;3.17;2.88;;;;;;;;;;5094046;28;20581;-63
2023/03/23 13:45:22;;;;;;;3.47;2.55;;;;;;;;;;5093186;28;20219;-63
2023/03/23 13:47:50;;;;;;;2.95;2.63;;;;;;;;;;5094560;28;20501;-63
2023/03/23 13:50:30;;;;;;;2.83;2.53;;;;;;;;;;5093763;28;20236;-63
2023/03/23 13:53:00;;;;;;;3.15;2.75;;;;;;;;;;5093146;28;20616;-63
2023/03/23 13:55:44;;;;;;;2.92;2.55;;;;;;;;;;5093548;28;20204;-63
2023/03/23 13:58:12;;;;;;;2.47;2.28;;;;;;;;;;5073409;28;20204;-63
2023/03/23 14:00:49;;;;;;;2.45;2.25;;;;;;;;;;5073155;28;20271;-63
2023/03/23 14:03:18;;;;;;;2.50;2.30;;;;;;;;;;5072635;28;20215;-63
2023/03/23 14:05:50;;;;;;;2.50;2.30;;;;;;;;;;5071816;28;20208;-63
2023/03/23 14:08:24;;;;;;;3.83;2.30;;;;;;;;;;5072530;28;20489;-63
2023/03/23 14:10:53;;;;;;;2.45;2.20;;;;;;;;;;5072736;28;20220;-63
2023/03/23 14:13:22;;;;;;;3.10;2.60;;;;;;;;;;5071920;28;20475;-63
2023/03/23 14:15:57;;;;;;;2.80;2.50;;;;;;;;;;5072090;28;20212;-63
2023/03/23 14:18:27;;;;;;;2.50;2.13;;;;;;;;;;5071619;28;20590;-63
2023/03/23 14:20:57;;;;;;;2.15;1.95;;;;;;;;;;5070581;28;20227;-63
2023/03/23 14:23:24;;;;;;;2.17;1.88;;;;;;;;;;5071567;28;20227;-63
2023/03/23 14:26:05;;;;;;;2.40;2.20;;;;;;;;;;5071223;28;20230;-63
2023/03/23 14:28:33;;;;;;;2.30;2.10;;;;;;;;;;5071684;28;20558;-63
2023/03/23 14:31:01;;;;;;;1.95;1.85;;;;;;;;;;5071263;28;20332;-63
2023/03/23 14:33:28;;;;;;;2.38;2.13;;;;;;;;;;5072229;28;20208;-63
2023/03/23 14:35:58;;;;;;;2.20;2.00;;;;;;;;;;5072401;28;20432;-63
2023/03/23 14:38:31;;;;;;;1.92;1.80;;;;;;;;;;5072044;28;20204;-63
2023/03/23 14:41:01;;;;;;;2.13;2.00;;;;;;;;;;5071468;28;20200;-63
2023/03/23 14:43:28;;;;;;;2.13;1.80;;;;;;;;;;5072089;28;20208;-63
2023/03/23 14:45:57;;;;;;;2.10;1.90;;;;;;;;;;5072405;28;20208;-63
2023/03/23 14:48:24;;;;;;;2.10;1.92;;;;;;;;;;5071023;28;20212;-63